sensor_id;sensor_type;location;lat;lon;timestamp;P1;durP1;ratioP1;P2;durP2;ratioP2
52180;SDS011;38158;53.338;6.514;2023-04-07T00:00:02;21.77;;;15.13;;
52180;SDS011;38158;53.338;6.514;2023-04-07T00:04:57;18.77;;;13.35;;
52180;SDS011;38158;53.338;6.514;2023-04-07T00:07:22;22.77;;;14.20;;
52180;SDS011;38158;53.338;6.514;2023-04-07T00:09:48;21.83;;;14.25;;
52180;SDS011;38158;53.338;6.514;2023-04-07T00:12:14;22.67;;;16.17;;
52180;SDS011;38158;53.338;6.514;2023-04-07T00:14:40;24.63;;;17.02;;
52180;SDS011;38158;53.338;6.514;2023-04-07T00:17:06;24.67;;;17.98;;
52180;SDS011;38158;53.338;6.514;2023-04-07T00:19:32;25.65;;;17.63;;
52180;SDS011;38158;53.338;6.514;2023-04-07T00:21:57;24.02;;;16.80;;
52180;SDS011;38158;53.338;6.514;2023-04-07T00:24:23;24.08;;;16.38;;
52180;SDS011;38158;53.338;6.514;2023-04-07T00:26:49;24.50;;;17.40;;
52180;SDS011;38158;53.338;6.514;2023-04-07T00:29:14;25.35;;;17.83;;
52180;SDS011;38158;53.338;6.514;2023-04-07T00:31:40;25.08;;;17.90;;
52180;SDS011;38158;53.338;6.514;2023-04-07T00:34:06;25.60;;;17.48;;
52180;SDS011;38158;53.338;6.514;2023-04-07T00:36:31;30.73;;;17.10;;
52180;SDS011;38158;53.338;6.514;2023-04-07T00:38:57;24.30;;;17.33;;
52180;SDS011;38158;53.338;6.514;2023-04-07T00:41:23;25.02;;;17.77;;
52180;SDS011;38158;53.338;6.514;2023-04-07T00:43:49;25.63;;;17.98;;
52180;SDS011;38158;53.338;6.514;2023-04-07T00:46:16;25.25;;;18.52;;
52180;SDS011;38158;53.338;6.514;2023-04-07T00:48:43;27.10;;;18.85;;
52180;SDS011;38158;53.338;6.514;2023-04-07T00:51:09;26.38;;;17.15;;
52180;SDS011;38158;53.338;6.514;2023-04-07T00:53:35;24.52;;;17.95;;
52180;SDS011;38158;53.338;6.514;2023-04-07T00:56:01;27.90;;;19.48;;
52180;SDS011;38158;53.338;6.514;2023-04-07T00:58:26;24.33;;;17.58;;
52180;SDS011;38158;53.338;6.514;2023-04-07T01:01:03;27.60;;;19.13;;
52180;SDS011;38158;53.338;6.514;2023-04-07T01:03:33;27.05;;;18.45;;
52180;SDS011;38158;53.338;6.514;2023-04-07T01:06:04;29.63;;;20.42;;
52180;SDS011;38158;53.338;6.514;2023-04-07T01:16:56;29.85;;;20.45;;
52180;SDS011;38158;53.338;6.514;2023-04-07T01:21:57;28.33;;;19.67;;
52180;SDS011;38158;53.338;6.514;2023-04-07T01:24:38;28.95;;;19.90;;
52180;SDS011;38158;53.338;6.514;2023-04-07T01:29:45;31.75;;;21.33;;
52180;SDS011;38158;53.338;6.514;2023-04-07T01:32:12;30.60;;;20.98;;
52180;SDS011;38158;53.338;6.514;2023-04-07T01:34:40;33.30;;;21.58;;
52180;SDS011;38158;53.338;6.514;2023-04-07T01:37:06;30.90;;;21.80;;
52180;SDS011;38158;53.338;6.514;2023-04-07T01:39:33;31.23;;;21.95;;
52180;SDS011;38158;53.338;6.514;2023-04-07T01:42:00;31.05;;;20.55;;
52180;SDS011;38158;53.338;6.514;2023-04-07T01:44:29;31.83;;;20.38;;
52180;SDS011;38158;53.338;6.514;2023-04-07T01:46:57;31.75;;;22.40;;
52180;SDS011;38158;53.338;6.514;2023-04-07T01:49:24;32.35;;;22.25;;
52180;SDS011;38158;53.338;6.514;2023-04-07T01:51:52;32.78;;;21.83;;
52180;SDS011;38158;53.338;6.514;2023-04-07T01:54:18;33.40;;;23.75;;
52180;SDS011;38158;53.338;6.514;2023-04-07T01:56:45;32.03;;;21.17;;
52180;SDS011;38158;53.338;6.514;2023-04-07T01:59:11;33.88;;;22.20;;
52180;SDS011;38158;53.338;6.514;2023-04-07T02:01:37;32.58;;;20.60;;
52180;SDS011;38158;53.338;6.514;2023-04-07T02:06:53;35.38;;;24.10;;
52180;SDS011;38158;53.338;6.514;2023-04-07T02:09:21;34.25;;;23.95;;
52180;SDS011;38158;53.338;6.514;2023-04-07T02:11:50;35.13;;;22.55;;
52180;SDS011;38158;53.338;6.514;2023-04-07T02:14:20;36.40;;;23.33;;
52180;SDS011;38158;53.338;6.514;2023-04-07T02:16:48;34.65;;;23.95;;
52180;SDS011;38158;53.338;6.514;2023-04-07T02:19:15;37.33;;;24.30;;
52180;SDS011;38158;53.338;6.514;2023-04-07T02:21:40;36.10;;;23.00;;
52180;SDS011;38158;53.338;6.514;2023-04-07T02:26:35;33.60;;;23.38;;
52180;SDS011;38158;53.338;6.514;2023-04-07T02:29:01;35.25;;;23.23;;
52180;SDS011;38158;53.338;6.514;2023-04-07T02:31:27;34.60;;;22.05;;
52180;SDS011;38158;53.338;6.514;2023-04-07T02:33:53;36.03;;;24.02;;
52180;SDS011;38158;53.338;6.514;2023-04-07T02:36:19;34.47;;;23.67;;
52180;SDS011;38158;53.338;6.514;2023-04-07T02:38:45;39.88;;;24.67;;
52180;SDS011;38158;53.338;6.514;2023-04-07T02:41:10;35.00;;;23.52;;
52180;SDS011;38158;53.338;6.514;2023-04-07T02:43:36;33.38;;;22.42;;
52180;SDS011;38158;53.338;6.514;2023-04-07T02:46:02;37.58;;;25.20;;
52180;SDS011;38158;53.338;6.514;2023-04-07T02:48:27;38.47;;;24.58;;
52180;SDS011;38158;53.338;6.514;2023-04-07T02:50:53;36.03;;;24.98;;
52180;SDS011;38158;53.338;6.514;2023-04-07T02:53:18;36.30;;;24.20;;
52180;SDS011;38158;53.338;6.514;2023-04-07T02:55:44;37.90;;;25.02;;
52180;SDS011;38158;53.338;6.514;2023-04-07T02:58:10;37.08;;;24.58;;
52180;SDS011;38158;53.338;6.514;2023-04-07T03:00:37;35.97;;;24.25;;
52180;SDS011;38158;53.338;6.514;2023-04-07T03:03:02;37.10;;;24.60;;
52180;SDS011;38158;53.338;6.514;2023-04-07T03:05:28;37.00;;;24.10;;
52180;SDS011;38158;53.338;6.514;2023-04-07T03:07:54;34.97;;;23.50;;
52180;SDS011;38158;53.338;6.514;2023-04-07T03:10:19;35.22;;;21.88;;
52180;SDS011;38158;53.338;6.514;2023-04-07T03:12:45;35.33;;;23.38;;
52180;SDS011;38158;53.338;6.514;2023-04-07T03:15:11;39.28;;;24.83;;
52180;SDS011;38158;53.338;6.514;2023-04-07T03:17:36;31.92;;;21.42;;
52180;SDS011;38158;53.338;6.514;2023-04-07T03:20:02;34.55;;;22.60;;
52180;SDS011;38158;53.338;6.514;2023-04-07T03:22:28;36.92;;;23.63;;
52180;SDS011;38158;53.338;6.514;2023-04-07T03:24:54;35.72;;;23.13;;
52180;SDS011;38158;53.338;6.514;2023-04-07T03:27:20;33.33;;;23.17;;
52180;SDS011;38158;53.338;6.514;2023-04-07T03:29:45;33.53;;;21.77;;
52180;SDS011;38158;53.338;6.514;2023-04-07T03:32:11;36.22;;;22.52;;
52180;SDS011;38158;53.338;6.514;2023-04-07T03:34:37;29.80;;;21.33;;
52180;SDS011;38158;53.338;6.514;2023-04-07T03:37:03;30.02;;;21.20;;
52180;SDS011;38158;53.338;6.514;2023-04-07T03:39:28;35.28;;;22.83;;
52180;SDS011;38158;53.338;6.514;2023-04-07T03:41:54;31.08;;;20.33;;
52180;SDS011;38158;53.338;6.514;2023-04-07T03:44:20;32.15;;;22.40;;
52180;SDS011;38158;53.338;6.514;2023-04-07T03:46:45;32.08;;;22.35;;
52180;SDS011;38158;53.338;6.514;2023-04-07T03:49:12;34.13;;;20.83;;
52180;SDS011;38158;53.338;6.514;2023-04-07T03:51:38;26.37;;;18.40;;
52180;SDS011;38158;53.338;6.514;2023-04-07T03:54:04;32.10;;;21.08;;
52180;SDS011;38158;53.338;6.514;2023-04-07T03:56:30;30.20;;;20.30;;
52180;SDS011;38158;53.338;6.514;2023-04-07T03:58:56;30.83;;;21.52;;
52180;SDS011;38158;53.338;6.514;2023-04-07T04:01:21;32.00;;;21.73;;
52180;SDS011;38158;53.338;6.514;2023-04-07T04:03:48;28.65;;;20.17;;
52180;SDS011;38158;53.338;6.514;2023-04-07T04:06:14;31.33;;;21.63;;
52180;SDS011;38158;53.338;6.514;2023-04-07T04:08:39;32.05;;;22.10;;
52180;SDS011;38158;53.338;6.514;2023-04-07T04:11:05;30.35;;;20.55;;
52180;SDS011;38158;53.338;6.514;2023-04-07T04:13:31;30.45;;;22.02;;
52180;SDS011;38158;53.338;6.514;2023-04-07T04:15:56;29.42;;;20.27;;
52180;SDS011;38158;53.338;6.514;2023-04-07T04:18:22;32.60;;;21.35;;
52180;SDS011;38158;53.338;6.514;2023-04-07T04:20:48;27.90;;;18.83;;
52180;SDS011;38158;53.338;6.514;2023-04-07T04:23:14;28.90;;;21.27;;
52180;SDS011;38158;53.338;6.514;2023-04-07T04:25:40;28.48;;;19.95;;
52180;SDS011;38158;53.338;6.514;2023-04-07T04:28:06;29.40;;;19.50;;
52180;SDS011;38158;53.338;6.514;2023-04-07T04:30:31;31.83;;;21.02;;
52180;SDS011;38158;53.338;6.514;2023-04-07T04:32:57;31.02;;;20.73;;
52180;SDS011;38158;53.338;6.514;2023-04-07T04:35:23;28.95;;;20.73;;
52180;SDS011;38158;53.338;6.514;2023-04-07T04:37:50;30.00;;;21.00;;
52180;SDS011;38158;53.338;6.514;2023-04-07T04:40:15;30.50;;;19.33;;
52180;SDS011;38158;53.338;6.514;2023-04-07T04:42:41;29.58;;;20.55;;
52180;SDS011;38158;53.338;6.514;2023-04-07T04:45:07;31.83;;;19.85;;
52180;SDS011;38158;53.338;6.514;2023-04-07T04:47:33;31.45;;;21.00;;
52180;SDS011;38158;53.338;6.514;2023-04-07T04:49:58;26.55;;;19.00;;
52180;SDS011;38158;53.338;6.514;2023-04-07T04:52:24;30.17;;;20.17;;
52180;SDS011;38158;53.338;6.514;2023-04-07T04:54:51;26.17;;;19.08;;
52180;SDS011;38158;53.338;6.514;2023-04-07T04:57:17;23.93;;;16.83;;
52180;SDS011;38158;53.338;6.514;2023-04-07T04:59:43;29.05;;;19.88;;
52180;SDS011;38158;53.338;6.514;2023-04-07T05:02:09;29.60;;;18.20;;
52180;SDS011;38158;53.338;6.514;2023-04-07T05:04:35;25.85;;;17.05;;
52180;SDS011;38158;53.338;6.514;2023-04-07T05:07:01;27.83;;;20.10;;
52180;SDS011;38158;53.338;6.514;2023-04-07T05:09:26;29.25;;;19.05;;
52180;SDS011;38158;53.338;6.514;2023-04-07T05:11:52;28.33;;;19.92;;
52180;SDS011;38158;53.338;6.514;2023-04-07T05:14:17;29.20;;;20.40;;
52180;SDS011;38158;53.338;6.514;2023-04-07T05:16:43;28.63;;;18.38;;
52180;SDS011;38158;53.338;6.514;2023-04-07T05:19:09;28.17;;;19.75;;
52180;SDS011;38158;53.338;6.514;2023-04-07T05:21:35;29.67;;;19.98;;
52180;SDS011;38158;53.338;6.514;2023-04-07T05:24:00;28.05;;;18.05;;
52180;SDS011;38158;53.338;6.514;2023-04-07T05:26:26;28.98;;;19.40;;
52180;SDS011;38158;53.338;6.514;2023-04-07T05:28:52;30.88;;;19.70;;
52180;SDS011;38158;53.338;6.514;2023-04-07T05:31:17;29.88;;;19.73;;
52180;SDS011;38158;53.338;6.514;2023-04-07T05:33:43;29.58;;;19.00;;
52180;SDS011;38158;53.338;6.514;2023-04-07T05:36:09;28.95;;;19.58;;
52180;SDS011;38158;53.338;6.514;2023-04-07T05:38:35;30.92;;;20.67;;
52180;SDS011;38158;53.338;6.514;2023-04-07T05:41:00;30.90;;;21.35;;
52180;SDS011;38158;53.338;6.514;2023-04-07T05:43:26;28.35;;;19.80;;
52180;SDS011;38158;53.338;6.514;2023-04-07T05:45:51;27.50;;;19.48;;
52180;SDS011;38158;53.338;6.514;2023-04-07T05:48:17;29.95;;;19.33;;
52180;SDS011;38158;53.338;6.514;2023-04-07T05:50:43;28.33;;;19.48;;
52180;SDS011;38158;53.338;6.514;2023-04-07T05:53:08;28.80;;;20.27;;
52180;SDS011;38158;53.338;6.514;2023-04-07T05:55:34;28.17;;;19.38;;
52180;SDS011;38158;53.338;6.514;2023-04-07T05:58:00;28.30;;;19.80;;
52180;SDS011;38158;53.338;6.514;2023-04-07T06:00:26;30.15;;;20.80;;
52180;SDS011;38158;53.338;6.514;2023-04-07T06:02:52;29.15;;;20.50;;
52180;SDS011;38158;53.338;6.514;2023-04-07T06:05:18;28.20;;;19.63;;
52180;SDS011;38158;53.338;6.514;2023-04-07T06:07:44;28.25;;;19.70;;
52180;SDS011;38158;53.338;6.514;2023-04-07T06:10:09;28.45;;;19.55;;
52180;SDS011;38158;53.338;6.514;2023-04-07T06:12:35;30.45;;;18.48;;
52180;SDS011;38158;53.338;6.514;2023-04-07T06:15:01;28.77;;;19.92;;
52180;SDS011;38158;53.338;6.514;2023-04-07T06:17:26;31.33;;;21.25;;
52180;SDS011;38158;53.338;6.514;2023-04-07T06:19:52;37.83;;;20.65;;
52180;SDS011;38158;53.338;6.514;2023-04-07T06:22:18;31.38;;;20.70;;
52180;SDS011;38158;53.338;6.514;2023-04-07T06:24:43;31.95;;;20.63;;
52180;SDS011;38158;53.338;6.514;2023-04-07T06:27:09;30.15;;;20.42;;
52180;SDS011;38158;53.338;6.514;2023-04-07T06:29:35;33.10;;;21.33;;
52180;SDS011;38158;53.338;6.514;2023-04-07T06:32:01;30.45;;;20.85;;
52180;SDS011;38158;53.338;6.514;2023-04-07T06:34:26;30.70;;;20.58;;
52180;SDS011;38158;53.338;6.514;2023-04-07T06:36:52;30.17;;;20.90;;
52180;SDS011;38158;53.338;6.514;2023-04-07T06:39:18;30.63;;;20.75;;
52180;SDS011;38158;53.338;6.514;2023-04-07T06:41:44;32.42;;;20.63;;
52180;SDS011;38158;53.338;6.514;2023-04-07T06:44:11;30.65;;;20.65;;
52180;SDS011;38158;53.338;6.514;2023-04-07T06:46:37;28.77;;;20.85;;
52180;SDS011;38158;53.338;6.514;2023-04-07T06:49:03;33.42;;;21.90;;
52180;SDS011;38158;53.338;6.514;2023-04-07T06:51:29;29.35;;;20.40;;
52180;SDS011;38158;53.338;6.514;2023-04-07T06:53:56;30.65;;;20.85;;
52180;SDS011;38158;53.338;6.514;2023-04-07T06:56:22;32.10;;;20.27;;
52180;SDS011;38158;53.338;6.514;2023-04-07T06:58:47;31.52;;;21.77;;
52180;SDS011;38158;53.338;6.514;2023-04-07T07:01:13;27.98;;;19.98;;
52180;SDS011;38158;53.338;6.514;2023-04-07T07:03:39;30.45;;;20.77;;
52180;SDS011;38158;53.338;6.514;2023-04-07T07:06:05;29.48;;;19.67;;
52180;SDS011;38158;53.338;6.514;2023-04-07T07:08:31;29.85;;;19.85;;
52180;SDS011;38158;53.338;6.514;2023-04-07T07:10:57;29.65;;;20.80;;
52180;SDS011;38158;53.338;6.514;2023-04-07T07:13:23;29.17;;;19.25;;
52180;SDS011;38158;53.338;6.514;2023-04-07T07:15:50;29.20;;;20.50;;
52180;SDS011;38158;53.338;6.514;2023-04-07T07:18:16;27.08;;;18.63;;
52180;SDS011;38158;53.338;6.514;2023-04-07T07:20:43;26.42;;;19.02;;
52180;SDS011;38158;53.338;6.514;2023-04-07T07:23:09;26.73;;;19.05;;
52180;SDS011;38158;53.338;6.514;2023-04-07T07:25:35;29.88;;;18.83;;
52180;SDS011;38158;53.338;6.514;2023-04-07T07:28:01;27.50;;;19.30;;
52180;SDS011;38158;53.338;6.514;2023-04-07T07:30:26;27.25;;;19.50;;
52180;SDS011;38158;53.338;6.514;2023-04-07T07:32:53;33.90;;;23.77;;
52180;SDS011;38158;53.338;6.514;2023-04-07T07:35:19;36.28;;;26.75;;
52180;SDS011;38158;53.338;6.514;2023-04-07T07:37:45;40.00;;;29.67;;
52180;SDS011;38158;53.338;6.514;2023-04-07T07:40:11;34.97;;;26.38;;
52180;SDS011;38158;53.338;6.514;2023-04-07T07:42:37;35.72;;;24.70;;
52180;SDS011;38158;53.338;6.514;2023-04-07T07:45:03;31.25;;;23.05;;
52180;SDS011;38158;53.338;6.514;2023-04-07T07:47:30;28.27;;;21.63;;
52180;SDS011;38158;53.338;6.514;2023-04-07T07:49:55;28.38;;;19.95;;
52180;SDS011;38158;53.338;6.514;2023-04-07T07:52:21;27.70;;;19.50;;
52180;SDS011;38158;53.338;6.514;2023-04-07T07:54:47;26.40;;;18.52;;
52180;SDS011;38158;53.338;6.514;2023-04-07T07:57:14;26.73;;;18.40;;
52180;SDS011;38158;53.338;6.514;2023-04-07T07:59:40;27.38;;;19.40;;
52180;SDS011;38158;53.338;6.514;2023-04-07T08:02:06;26.45;;;19.77;;
52180;SDS011;38158;53.338;6.514;2023-04-07T08:04:32;29.83;;;20.38;;
52180;SDS011;38158;53.338;6.514;2023-04-07T08:06:59;29.92;;;20.75;;
52180;SDS011;38158;53.338;6.514;2023-04-07T08:09:25;28.85;;;19.38;;
52180;SDS011;38158;53.338;6.514;2023-04-07T08:11:51;25.45;;;18.80;;
52180;SDS011;38158;53.338;6.514;2023-04-07T08:14:16;26.77;;;20.30;;
52180;SDS011;38158;53.338;6.514;2023-04-07T08:16:43;30.05;;;20.33;;
52180;SDS011;38158;53.338;6.514;2023-04-07T08:19:09;31.37;;;21.67;;
52180;SDS011;38158;53.338;6.514;2023-04-07T08:21:35;28.90;;;20.65;;
52180;SDS011;38158;53.338;6.514;2023-04-07T08:24:01;28.80;;;20.92;;
52180;SDS011;38158;53.338;6.514;2023-04-07T08:26:26;33.25;;;21.48;;
52180;SDS011;38158;53.338;6.514;2023-04-07T08:28:52;32.08;;;21.50;;
52180;SDS011;38158;53.338;6.514;2023-04-07T08:31:20;32.10;;;22.23;;
52180;SDS011;38158;53.338;6.514;2023-04-07T08:33:46;31.58;;;22.15;;
52180;SDS011;38158;53.338;6.514;2023-04-07T08:36:11;31.10;;;20.95;;
52180;SDS011;38158;53.338;6.514;2023-04-07T08:38:37;31.85;;;22.17;;
52180;SDS011;38158;53.338;6.514;2023-04-07T08:41:07;28.70;;;21.15;;
52180;SDS011;38158;53.338;6.514;2023-04-07T08:43:36;29.35;;;21.10;;
52180;SDS011;38158;53.338;6.514;2023-04-07T08:46:03;28.65;;;21.00;;
52180;SDS011;38158;53.338;6.514;2023-04-07T08:48:30;28.83;;;19.48;;
52180;SDS011;38158;53.338;6.514;2023-04-07T08:51:05;27.52;;;19.80;;
52180;SDS011;38158;53.338;6.514;2023-04-07T08:53:38;28.50;;;20.75;;
52180;SDS011;38158;53.338;6.514;2023-04-07T08:56:07;29.08;;;19.25;;
52180;SDS011;38158;53.338;6.514;2023-04-07T08:58:36;27.73;;;19.35;;
52180;SDS011;38158;53.338;6.514;2023-04-07T09:01:05;27.33;;;19.40;;
52180;SDS011;38158;53.338;6.514;2023-04-07T09:03:31;29.48;;;19.02;;
52180;SDS011;38158;53.338;6.514;2023-04-07T09:06:01;28.50;;;20.77;;
52180;SDS011;38158;53.338;6.514;2023-04-07T09:08:27;25.92;;;18.60;;
52180;SDS011;38158;53.338;6.514;2023-04-07T09:10:53;24.98;;;18.30;;
52180;SDS011;38158;53.338;6.514;2023-04-07T09:13:20;24.45;;;17.02;;
52180;SDS011;38158;53.338;6.514;2023-04-07T09:18:13;23.02;;;15.85;;
52180;SDS011;38158;53.338;6.514;2023-04-07T09:20:56;24.90;;;17.60;;
52180;SDS011;38158;53.338;6.514;2023-04-07T09:23:32;23.08;;;16.45;;
52180;SDS011;38158;53.338;6.514;2023-04-07T09:28:47;22.75;;;16.35;;
52180;SDS011;38158;53.338;6.514;2023-04-07T09:31:14;20.65;;;14.88;;
52180;SDS011;38158;53.338;6.514;2023-04-07T09:33:40;22.60;;;16.38;;
52180;SDS011;38158;53.338;6.514;2023-04-07T09:36:06;22.15;;;16.08;;
52180;SDS011;38158;53.338;6.514;2023-04-07T09:38:36;22.52;;;15.23;;
52180;SDS011;38158;53.338;6.514;2023-04-07T09:43:41;19.00;;;13.00;;
52180;SDS011;38158;53.338;6.514;2023-04-07T09:46:10;19.13;;;14.30;;
52180;SDS011;38158;53.338;6.514;2023-04-07T09:48:36;24.00;;;14.80;;
52180;SDS011;38158;53.338;6.514;2023-04-07T09:51:06;17.27;;;13.02;;
52180;SDS011;38158;53.338;6.514;2023-04-07T09:53:51;19.20;;;12.10;;
52180;SDS011;38158;53.338;6.514;2023-04-07T09:56:18;16.77;;;11.35;;
52180;SDS011;38158;53.338;6.514;2023-04-07T09:58:48;17.30;;;11.98;;
52180;SDS011;38158;53.338;6.514;2023-04-07T10:01:16;16.45;;;11.82;;
52180;SDS011;38158;53.338;6.514;2023-04-07T10:03:42;13.85;;;10.77;;
52180;SDS011;38158;53.338;6.514;2023-04-07T10:06:11;14.57;;;10.55;;
52180;SDS011;38158;53.338;6.514;2023-04-07T10:08:38;14.70;;;11.05;;
52180;SDS011;38158;53.338;6.514;2023-04-07T10:11:05;14.20;;;9.77;;
52180;SDS011;38158;53.338;6.514;2023-04-07T10:13:32;12.43;;;8.95;;
52180;SDS011;38158;53.338;6.514;2023-04-07T10:16:02;15.43;;;10.65;;
52180;SDS011;38158;53.338;6.514;2023-04-07T10:18:30;16.02;;;10.95;;
52180;SDS011;38158;53.338;6.514;2023-04-07T10:24:06;14.65;;;11.25;;
52180;SDS011;38158;53.338;6.514;2023-04-07T10:26:22;14.82;;;11.02;;
52180;SDS011;38158;53.338;6.514;2023-04-07T10:28:54;15.65;;;11.70;;
52180;SDS011;38158;53.338;6.514;2023-04-07T10:31:25;14.25;;;10.98;;
52180;SDS011;38158;53.338;6.514;2023-04-07T10:33:52;15.52;;;11.60;;
52180;SDS011;38158;53.338;6.514;2023-04-07T10:36:19;14.35;;;11.10;;
52180;SDS011;38158;53.338;6.514;2023-04-07T10:41:40;16.38;;;11.88;;
52180;SDS011;38158;53.338;6.514;2023-04-07T10:44:06;15.23;;;11.43;;
52180;SDS011;38158;53.338;6.514;2023-04-07T10:49:12;14.38;;;10.93;;
52180;SDS011;38158;53.338;6.514;2023-04-07T10:51:39;17.05;;;11.35;;
52180;SDS011;38158;53.338;6.514;2023-04-07T10:54:20;14.65;;;10.40;;
52180;SDS011;38158;53.338;6.514;2023-04-07T10:59:28;13.10;;;9.73;;
52180;SDS011;38158;53.338;6.514;2023-04-07T11:02:54;14.15;;;9.57;;
52180;SDS011;38158;53.338;6.514;2023-04-07T11:04:49;14.43;;;9.63;;
52180;SDS011;38158;53.338;6.514;2023-04-07T11:07:15;12.93;;;9.55;;
52180;SDS011;38158;53.338;6.514;2023-04-07T11:09:40;12.43;;;9.82;;
52180;SDS011;38158;53.338;6.514;2023-04-07T11:12:06;12.52;;;9.18;;
52180;SDS011;38158;53.338;6.514;2023-04-07T11:14:32;12.85;;;9.30;;
52180;SDS011;38158;53.338;6.514;2023-04-07T11:17:01;11.95;;;8.70;;
52180;SDS011;38158;53.338;6.514;2023-04-07T11:19:28;11.10;;;8.13;;
52180;SDS011;38158;53.338;6.514;2023-04-07T11:24:40;13.27;;;7.68;;
52180;SDS011;38158;53.338;6.514;2023-04-07T11:27:11;9.93;;;7.47;;
52180;SDS011;38158;53.338;6.514;2023-04-07T11:29:37;10.68;;;7.70;;
52180;SDS011;38158;53.338;6.514;2023-04-07T11:32:03;11.73;;;8.23;;
52180;SDS011;38158;53.338;6.514;2023-04-07T11:34:30;14.30;;;9.52;;
52180;SDS011;38158;53.338;6.514;2023-04-07T11:39:25;11.27;;;9.00;;
52180;SDS011;38158;53.338;6.514;2023-04-07T11:41:57;13.95;;;9.55;;
52180;SDS011;38158;53.338;6.514;2023-04-07T11:44:23;12.70;;;10.05;;
52180;SDS011;38158;53.338;6.514;2023-04-07T11:46:57;11.20;;;9.00;;
52180;SDS011;38158;53.338;6.514;2023-04-07T11:49:27;13.98;;;10.20;;
52180;SDS011;38158;53.338;6.514;2023-04-07T11:52:03;11.65;;;9.80;;
52180;SDS011;38158;53.338;6.514;2023-04-07T11:54:40;12.77;;;9.35;;
52180;SDS011;38158;53.338;6.514;2023-04-07T11:57:07;12.77;;;9.40;;
52180;SDS011;38158;53.338;6.514;2023-04-07T11:59:36;15.35;;;9.80;;
52180;SDS011;38158;53.338;6.514;2023-04-07T12:02:02;10.55;;;8.00;;
52180;SDS011;38158;53.338;6.514;2023-04-07T12:04:28;11.52;;;8.45;;
52180;SDS011;38158;53.338;6.514;2023-04-07T12:07:05;13.95;;;9.43;;
52180;SDS011;38158;53.338;6.514;2023-04-07T12:09:35;12.63;;;8.63;;
52180;SDS011;38158;53.338;6.514;2023-04-07T12:12:02;11.93;;;8.88;;
52180;SDS011;38158;53.338;6.514;2023-04-07T12:14:30;11.80;;;8.82;;
52180;SDS011;38158;53.338;6.514;2023-04-07T12:16:56;14.00;;;9.75;;
52180;SDS011;38158;53.338;6.514;2023-04-07T12:19:26;10.20;;;8.40;;
52180;SDS011;38158;53.338;6.514;2023-04-07T12:21:53;12.25;;;9.23;;
52180;SDS011;38158;53.338;6.514;2023-04-07T12:24:19;12.65;;;9.65;;
52180;SDS011;38158;53.338;6.514;2023-04-07T12:26:45;12.07;;;9.75;;
52180;SDS011;38158;53.338;6.514;2023-04-07T12:29:12;13.23;;;10.15;;
52180;SDS011;38158;53.338;6.514;2023-04-07T12:31:38;13.07;;;9.35;;
52180;SDS011;38158;53.338;6.514;2023-04-07T12:34:03;11.55;;;8.90;;
52180;SDS011;38158;53.338;6.514;2023-04-07T12:36:29;12.68;;;9.07;;
52180;SDS011;38158;53.338;6.514;2023-04-07T12:38:55;14.07;;;9.23;;
52180;SDS011;38158;53.338;6.514;2023-04-07T12:41:21;13.02;;;9.15;;
52180;SDS011;38158;53.338;6.514;2023-04-07T12:43:48;13.30;;;8.32;;
52180;SDS011;38158;53.338;6.514;2023-04-07T12:46:14;10.93;;;7.82;;
52180;SDS011;38158;53.338;6.514;2023-04-07T12:48:39;14.45;;;9.00;;
52180;SDS011;38158;53.338;6.514;2023-04-07T12:51:05;12.68;;;10.07;;
52180;SDS011;38158;53.338;6.514;2023-04-07T12:53:31;11.80;;;8.35;;
52180;SDS011;38158;53.338;6.514;2023-04-07T12:55:56;15.32;;;9.43;;
52180;SDS011;38158;53.338;6.514;2023-04-07T12:58:23;16.80;;;9.93;;
52180;SDS011;38158;53.338;6.514;2023-04-07T13:00:48;15.70;;;11.93;;
52180;SDS011;38158;53.338;6.514;2023-04-07T13:03:14;14.50;;;11.73;;
52180;SDS011;38158;53.338;6.514;2023-04-07T13:05:40;14.48;;;11.25;;
52180;SDS011;38158;53.338;6.514;2023-04-07T13:08:05;12.73;;;9.90;;
52180;SDS011;38158;53.338;6.514;2023-04-07T13:10:32;19.90;;;12.80;;
52180;SDS011;38158;53.338;6.514;2023-04-07T13:12:58;15.55;;;11.10;;
52180;SDS011;38158;53.338;6.514;2023-04-07T13:15:23;14.48;;;11.98;;
52180;SDS011;38158;53.338;6.514;2023-04-07T13:17:49;16.20;;;11.88;;
52180;SDS011;38158;53.338;6.514;2023-04-07T13:20:15;17.90;;;12.52;;
52180;SDS011;38158;53.338;6.514;2023-04-07T13:22:40;16.20;;;12.27;;
52180;SDS011;38158;53.338;6.514;2023-04-07T13:25:07;13.98;;;11.02;;
52180;SDS011;38158;53.338;6.514;2023-04-07T13:27:33;18.20;;;11.35;;
52180;SDS011;38158;53.338;6.514;2023-04-07T13:29:58;17.00;;;11.55;;
52180;SDS011;38158;53.338;6.514;2023-04-07T13:32:24;15.57;;;11.50;;
52180;SDS011;38158;53.338;6.514;2023-04-07T13:34:51;16.08;;;11.75;;
52180;SDS011;38158;53.338;6.514;2023-04-07T13:37:16;16.67;;;12.35;;
52180;SDS011;38158;53.338;6.514;2023-04-07T13:39:43;18.05;;;11.82;;
52180;SDS011;38158;53.338;6.514;2023-04-07T13:42:09;13.80;;;10.70;;
52180;SDS011;38158;53.338;6.514;2023-04-07T13:44:35;14.60;;;11.63;;
52180;SDS011;38158;53.338;6.514;2023-04-07T13:47:01;18.52;;;11.45;;
52180;SDS011;38158;53.338;6.514;2023-04-07T13:49:27;14.27;;;10.88;;
52180;SDS011;38158;53.338;6.514;2023-04-07T13:51:53;14.43;;;11.05;;
52180;SDS011;38158;53.338;6.514;2023-04-07T13:54:19;15.88;;;11.82;;
52180;SDS011;38158;53.338;6.514;2023-04-07T13:56:45;14.18;;;10.95;;
52180;SDS011;38158;53.338;6.514;2023-04-07T13:59:13;15.27;;;11.73;;
52180;SDS011;38158;53.338;6.514;2023-04-07T14:01:39;15.15;;;11.52;;
52180;SDS011;38158;53.338;6.514;2023-04-07T14:04:05;15.02;;;10.85;;
52180;SDS011;38158;53.338;6.514;2023-04-07T14:06:31;17.20;;;11.43;;
52180;SDS011;38158;53.338;6.514;2023-04-07T14:08:57;15.40;;;11.20;;
52180;SDS011;38158;53.338;6.514;2023-04-07T14:11:23;18.67;;;12.25;;
52180;SDS011;38158;53.338;6.514;2023-04-07T14:13:51;15.50;;;11.07;;
52180;SDS011;38158;53.338;6.514;2023-04-07T14:16:17;15.45;;;11.18;;
52180;SDS011;38158;53.338;6.514;2023-04-07T14:18:43;18.33;;;11.90;;
52180;SDS011;38158;53.338;6.514;2023-04-07T14:21:09;15.18;;;11.82;;
52180;SDS011;38158;53.338;6.514;2023-04-07T14:23:35;16.90;;;11.88;;
52180;SDS011;38158;53.338;6.514;2023-04-07T14:26:01;17.85;;;12.70;;
52180;SDS011;38158;53.338;6.514;2023-04-07T14:28:27;15.20;;;11.38;;
52180;SDS011;38158;53.338;6.514;2023-04-07T14:30:53;15.98;;;11.20;;
52180;SDS011;38158;53.338;6.514;2023-04-07T14:33:19;14.48;;;10.60;;
52180;SDS011;38158;53.338;6.514;2023-04-07T14:35:46;13.88;;;10.77;;
52180;SDS011;38158;53.338;6.514;2023-04-07T14:38:12;16.13;;;10.77;;
52180;SDS011;38158;53.338;6.514;2023-04-07T14:40:37;16.77;;;11.95;;
52180;SDS011;38158;53.338;6.514;2023-04-07T14:43:04;15.40;;;11.27;;
52180;SDS011;38158;53.338;6.514;2023-04-07T14:45:31;15.45;;;11.57;;
52180;SDS011;38158;53.338;6.514;2023-04-07T14:47:56;16.65;;;11.27;;
52180;SDS011;38158;53.338;6.514;2023-04-07T14:50:22;17.48;;;11.27;;
52180;SDS011;38158;53.338;6.514;2023-04-07T14:52:48;15.85;;;11.57;;
52180;SDS011;38158;53.338;6.514;2023-04-07T14:55:14;17.70;;;11.30;;
52180;SDS011;38158;53.338;6.514;2023-04-07T14:57:40;13.70;;;10.55;;
52180;SDS011;38158;53.338;6.514;2023-04-07T15:00:06;15.98;;;12.38;;
52180;SDS011;38158;53.338;6.514;2023-04-07T15:02:33;17.13;;;11.10;;
52180;SDS011;38158;53.338;6.514;2023-04-07T15:07:26;14.63;;;10.63;;